createdAt,value
2022-12-01T00:01:19.862Z,5.48
2022-12-01T00:03:47.758Z,5.50
2022-12-01T00:06:17.412Z,5.51
2022-12-01T00:09:06.440Z,5.42
2022-12-01T00:11:35.596Z,5.44
2022-12-01T00:14:03.756Z,5.38
2022-12-01T00:16:32.037Z,5.35
2022-12-01T00:18:59.844Z,5.34
2022-12-01T00:21:28.272Z,5.35
2022-12-01T00:23:57.831Z,5.35
2022-12-01T00:26:26.788Z,5.33
2022-12-01T00:28:57.442Z,5.40
2022-12-01T00:31:25.971Z,5.41
2022-12-01T00:33:56.527Z,5.41
2022-12-01T00:36:24.614Z,5.42
2022-12-01T00:38:53.658Z,5.38
2022-12-01T00:41:21.764Z,5.40
2022-12-01T00:43:51.018Z,5.35
2022-12-01T00:46:20.132Z,5.38
2022-12-01T00:48:47.930Z,5.37
2022-12-01T00:51:15.579Z,5.35
2022-12-01T00:53:43.355Z,5.35
2022-12-01T00:56:11.137Z,5.35
2022-12-01T00:58:38.857Z,5.40
2022-12-01T01:01:07.151Z,5.39
2022-12-01T01:03:36.264Z,5.39
2022-12-01T01:06:08.716Z,5.37
2022-12-01T01:08:36.833Z,5.36
2022-12-01T01:11:07.237Z,5.40
2022-12-01T01:13:34.925Z,5.42
2022-12-01T01:16:05.629Z,5.36
2022-12-01T01:18:33.595Z,5.38
2022-12-01T01:21:05.995Z,5.35
2022-12-01T01:23:36.038Z,5.33
2022-12-01T01:26:05.450Z,5.33
2022-12-01T01:28:33.859Z,5.32
2022-12-01T01:31:06.185Z,5.31
2022-12-01T01:33:33.845Z,5.31
2022-12-01T01:36:03.780Z,5.30
2022-12-01T01:38:32.092Z,5.30
2022-12-01T01:40:59.764Z,5.33
2022-12-01T01:43:45.036Z,5.36
2022-12-01T01:46:14.487Z,5.34
2022-12-01T01:48:44.329Z,5.34
2022-12-01T01:51:15.400Z,5.26
2022-12-01T01:53:46.287Z,5.31
2022-12-01T01:56:14.026Z,5.30
2022-12-01T01:58:42.379Z,5.28
2022-12-01T02:01:10.037Z,5.18
2022-12-01T02:03:40.672Z,5.19
2022-12-01T02:06:09.584Z,5.19
2022-12-01T02:08:38.877Z,5.17
2022-12-01T02:11:32.460Z,5.19
2022-12-01T02:14:08.526Z,5.19
2022-12-01T02:16:45.386Z,5.16
2022-12-01T02:19:34.462Z,5.18
2022-12-01T02:22:15.827Z,5.12
2022-12-01T02:25:01.045Z,5.07
2022-12-01T02:27:44.858Z,5.08
2022-12-01T02:30:15.948Z,5.03
2022-12-01T02:33:05.470Z,4.99
2022-12-01T02:35:37.085Z,4.94
2022-12-01T02:38:12.800Z,4.91
2022-12-01T02:40:45.124Z,4.91
2022-12-01T02:43:18.965Z,4.94
2022-12-01T02:45:51.296Z,4.94
2022-12-01T02:48:27.615Z,4.93
2022-12-01T02:50:58.723Z,4.96
2022-12-01T02:53:26.615Z,4.88
2022-12-01T02:55:56.362Z,4.93
2022-12-01T02:58:24.161Z,4.84
2022-12-01T03:01:04.640Z,4.81
2022-12-01T03:03:48.585Z,4.80
2022-12-01T03:06:24.174Z,4.78
2022-12-01T03:08:59.628Z,4.81
2022-12-01T03:11:36.794Z,4.78
2022-12-01T03:14:14.214Z,4.77
2022-12-01T03:16:50.724Z,4.71
2022-12-01T03:19:28.089Z,4.71
2022-12-01T03:22:02.409Z,4.69
2022-12-01T03:24:32.929Z,4.68
2022-12-01T03:27:02.307Z,4.65
2022-12-01T03:29:33.863Z,4.68
2022-12-01T03:32:07.226Z,4.71
2022-12-01T03:34:38.872Z,4.67
2022-12-01T03:37:10.461Z,4.66
2022-12-01T03:39:40.752Z,4.68
2022-12-01T03:42:14.984Z,4.66
2022-12-01T03:44:47.603Z,4.58
2022-12-01T03:47:18.244Z,4.59
2022-12-01T03:49:49.381Z,4.58
2022-12-01T03:52:25.518Z,4.55
2022-12-01T03:55:01.135Z,4.49
2022-12-01T03:57:32.794Z,4.50
2022-12-01T04:00:00.826Z,4.46
2022-12-01T04:02:28.997Z,4.44
2022-12-01T04:04:58.078Z,4.49
2022-12-01T04:07:25.814Z,4.50
2022-12-01T04:09:53.479Z,4.48
2022-12-01T04:12:29.366Z,4.50
2022-12-01T04:14:57.916Z,4.51
2022-12-01T04:17:25.822Z,4.50
2022-12-01T04:19:53.457Z,4.53
2022-12-01T04:22:23.167Z,4.55
2022-12-01T04:24:50.742Z,4.49
2022-12-01T04:27:18.505Z,4.49
2022-12-01T04:29:46.280Z,4.49
2022-12-01T04:32:13.990Z,4.53
2022-12-01T04:34:41.672Z,4.44
2022-12-01T04:37:10.043Z,4.42
2022-12-01T04:39:39.044Z,4.44
2022-12-01T04:42:06.839Z,4.43
2022-12-01T04:44:35.182Z,4.44
2022-12-01T04:47:03.307Z,4.47
2022-12-01T04:49:31.351Z,4.48
2022-12-01T04:51:59.229Z,4.43
2022-12-01T04:54:27.012Z,4.45
2022-12-01T04:56:55.994Z,4.42
2022-12-01T04:59:23.694Z,4.33
2022-12-01T05:01:51.297Z,4.33
2022-12-01T05:04:19.014Z,4.36
2022-12-01T05:06:46.779Z,4.31
2022-12-01T05:09:17.796Z,4.29
2022-12-01T05:11:46.067Z,4.31
2022-12-01T05:14:15.221Z,4.34
2022-12-01T05:16:42.876Z,4.37
2022-12-01T05:19:27.508Z,4.40
2022-12-01T05:21:55.266Z,4.40
2022-12-01T05:24:23.196Z,4.37
2022-12-01T05:26:50.857Z,4.38
2022-12-01T05:29:20.002Z,4.36
2022-12-01T05:31:47.761Z,4.37
2022-12-01T05:34:15.582Z,4.37
2022-12-01T05:36:43.152Z,4.33
2022-12-01T05:39:10.793Z,4.32
2022-12-01T05:41:38.355Z,4.25
2022-12-01T05:44:06.232Z,4.27
2022-12-01T05:46:35.248Z,4.29
2022-12-01T05:49:02.852Z,4.31
2022-12-01T05:51:30.430Z,4.38
2022-12-01T05:54:00.128Z,4.37
2022-12-01T05:56:27.763Z,4.38
2022-12-01T05:58:55.368Z,4.37
2022-12-01T06:01:23.105Z,4.42
2022-12-01T06:03:53.536Z,4.39
2022-12-01T06:06:21.445Z,4.38
2022-12-01T06:08:49.058Z,4.38
2022-12-01T06:11:16.813Z,4.34
2022-12-01T06:13:44.492Z,4.30
2022-12-01T06:16:12.216Z,4.36
2022-12-01T06:18:40.474Z,4.34
2022-12-01T06:21:09.505Z,4.34
2022-12-01T06:23:37.264Z,4.29
2022-12-01T06:26:05.099Z,4.28
2022-12-01T06:28:32.698Z,4.26
2022-12-01T06:31:03.394Z,4.26
2022-12-01T06:33:32.374Z,4.26
2022-12-01T06:36:00.124Z,4.30
2022-12-01T06:38:32.168Z,4.32
2022-12-01T06:40:59.818Z,4.32
2022-12-01T06:43:27.654Z,4.33
2022-12-01T06:46:00.816Z,4.32
2022-12-01T06:48:29.507Z,4.34
2022-12-01T06:50:58.343Z,4.37
2022-12-01T06:53:27.216Z,4.39
2022-12-01T06:55:59.839Z,4.38
2022-12-01T06:58:27.518Z,4.36
2022-12-01T07:00:55.573Z,4.34
2022-12-01T07:03:23.260Z,4.36
2022-12-01T07:05:58.388Z,4.40
2022-12-01T07:08:26.071Z,4.47
2022-12-01T07:10:59.850Z,4.47
2022-12-01T07:13:32.828Z,4.43
2022-12-01T07:16:00.651Z,4.40
2022-12-01T07:18:28.272Z,4.42
2022-12-01T07:20:59.875Z,4.42
2022-12-01T07:23:27.503Z,4.43
2022-12-01T07:26:00.988Z,4.43
2022-12-01T07:28:29.494Z,4.59
2022-12-01T07:31:02.940Z,4.62
2022-12-01T07:33:30.797Z,4.60
2022-12-01T07:35:58.522Z,4.54
2022-12-01T07:38:26.504Z,4.57
2022-12-01T07:40:54.100Z,4.62
2022-12-01T07:43:23.268Z,4.75
2022-12-01T07:45:50.954Z,4.79
2022-12-01T07:48:18.576Z,4.87
2022-12-01T07:50:46.178Z,4.93
2022-12-01T07:53:13.772Z,4.89
2022-12-01T07:55:48.370Z,4.87
2022-12-01T07:58:15.971Z,4.82
2022-12-01T08:00:44.989Z,4.76
2022-12-01T08:03:12.692Z,4.70
2022-12-01T08:05:40.333Z,4.64
2022-12-01T08:08:08.017Z,4.68
2022-12-01T08:10:36.153Z,4.73
2022-12-01T08:13:03.873Z,4.75
2022-12-01T08:15:31.497Z,4.77
2022-12-01T08:18:03.578Z,4.80
2022-12-01T08:20:31.380Z,4.87
2022-12-01T08:23:01.576Z,4.88
2022-12-01T08:25:29.655Z,4.86
2022-12-01T08:27:57.815Z,4.87
2022-12-01T08:30:25.434Z,4.90
2022-12-01T08:32:54.314Z,4.91
2022-12-01T08:35:23.687Z,4.92
2022-12-01T08:37:53.058Z,4.90
2022-12-01T08:40:20.713Z,4.88
2022-12-01T08:42:48.559Z,4.88
2022-12-01T08:45:16.222Z,4.91
2022-12-01T08:47:43.799Z,4.90
2022-12-01T08:50:11.960Z,4.96
2022-12-01T08:52:40.887Z,4.95
2022-12-01T08:55:09.691Z,4.97
2022-12-01T08:57:37.315Z,5.02
2022-12-01T09:00:05.524Z,4.96
2022-12-01T09:02:33.256Z,4.89
2022-12-01T09:05:00.988Z,4.92
2022-12-01T09:07:28.701Z,4.92
2022-12-01T09:09:57.708Z,4.94
2022-12-01T09:12:25.372Z,4.95
2022-12-01T09:14:53.063Z,4.97
2022-12-01T09:17:20.692Z,4.97
2022-12-01T09:19:48.600Z,5.04
2022-12-01T09:22:16.413Z,5.07
2022-12-01T09:24:44.014Z,5.07
2022-12-01T09:27:13.122Z,5.08
2022-12-01T09:29:40.709Z,5.11
2022-12-01T09:32:08.316Z,5.11
2022-12-01T09:34:35.926Z,5.19
2022-12-01T09:37:03.554Z,5.22
2022-12-01T09:39:31.210Z,5.22
2022-12-01T09:42:08.253Z,5.21
2022-12-01T09:44:42.091Z,5.18
2022-12-01T09:47:19.056Z,5.16
2022-12-01T09:49:56.488Z,5.34
2022-12-01T09:52:26.549Z,5.42
2022-12-01T09:54:56.220Z,5.36
2022-12-01T09:57:31.133Z,5.34
2022-12-01T10:00:02.966Z,5.33
2022-12-01T10:02:43.401Z,5.30
2022-12-01T10:05:21.013Z,5.35
2022-12-01T10:07:53.609Z,5.34
2022-12-01T10:10:28.568Z,5.36
2022-12-01T10:12:56.441Z,5.37
2022-12-01T10:15:36.304Z,5.39
2022-12-01T10:18:21.369Z,5.36
2022-12-01T10:20:55.857Z,5.41
2022-12-01T10:23:39.422Z,5.43
2022-12-01T10:26:14.030Z,5.46
2022-12-01T10:29:11.545Z,5.48
2022-12-01T10:31:49.240Z,5.60
2022-12-01T10:34:19.141Z,5.68
2022-12-01T10:36:47.007Z,5.76
2022-12-01T10:39:19.914Z,5.85
2022-12-01T10:41:49.874Z,5.85
2022-12-01T10:44:19.280Z,5.87
2022-12-01T10:46:53.429Z,5.88
2022-12-01T10:49:22.149Z,5.95
2022-12-01T10:51:55.179Z,5.90
2022-12-01T10:54:25.342Z,5.80
2022-12-01T10:56:57.519Z,5.78
2022-12-01T10:59:29.417Z,5.79
2022-12-01T11:02:00.320Z,5.80
2022-12-01T11:04:37.470Z,5.75
2022-12-01T11:07:05.312Z,5.69
2022-12-01T11:09:33.726Z,5.71
2022-12-01T11:12:03.095Z,5.71
2022-12-01T11:14:42.108Z,6.43
2022-12-01T11:17:29.315Z,7.19
2022-12-01T11:19:57.216Z,7.73
2022-12-01T11:22:27.607Z,7.98
2022-12-01T11:25:04.874Z,8.06
2022-12-01T11:27:36.221Z,7.89
2022-12-01T11:30:07.015Z,7.56
2022-12-01T11:32:39.800Z,7.26
2022-12-01T11:35:17.872Z,6.95
2022-12-01T11:38:13.325Z,6.89
2022-12-01T11:40:46.421Z,6.69
2022-12-01T11:43:24.483Z,6.68
2022-12-01T11:45:53.624Z,6.53
2022-12-01T11:48:27.145Z,6.57
2022-12-01T11:51:07.155Z,6.51
2022-12-01T11:53:36.940Z,6.40
2022-12-01T11:56:17.153Z,6.32
2022-12-01T11:58:46.781Z,6.33
2022-12-01T12:01:22.235Z,6.27
2022-12-01T12:04:00.008Z,6.16
2022-12-01T12:06:40.564Z,6.17
2022-12-01T12:09:31.825Z,6.12
2022-12-01T12:12:12.194Z,6.02
2022-12-01T12:14:53.715Z,5.95
2022-12-01T12:17:47.992Z,6.00
2022-12-01T12:20:28.981Z,5.98
2022-12-01T12:23:11.763Z,5.93
2022-12-01T12:25:53.593Z,5.96
2022-12-01T12:28:39.356Z,5.98
2022-12-01T12:31:17.860Z,5.95
2022-12-01T12:34:15.154Z,5.95
2022-12-01T12:36:52.796Z,5.96
2022-12-01T12:39:41.272Z,5.93
2022-12-01T12:42:20.555Z,5.94
2022-12-01T12:44:52.468Z,5.98
2022-12-01T12:47:32.241Z,5.93
2022-12-01T12:50:09.616Z,5.92
2022-12-01T12:52:41.805Z,5.93
2022-12-01T12:55:17.482Z,5.83
2022-12-01T12:57:49.319Z,5.75
2022-12-01T13:00:19.703Z,5.77
2022-12-01T13:02:51.531Z,5.83
2022-12-01T13:05:24.273Z,5.85
2022-12-01T13:07:59.598Z,5.84
2022-12-01T13:10:34.087Z,5.86
2022-12-01T13:13:12.718Z,5.87
2022-12-01T13:15:42.385Z,5.90
2022-12-01T13:18:26.616Z,5.93
2022-12-01T13:20:58.075Z,5.91
2022-12-01T13:23:27.436Z,5.92
2022-12-01T13:26:00.144Z,5.90
2022-12-01T13:28:30.372Z,5.92
2022-12-01T13:31:00.880Z,6.01
2022-12-01T13:33:29.088Z,6.05
2022-12-01T13:36:29.779Z,5.95
2022-12-01T13:38:57.795Z,5.85
2022-12-01T13:41:29.355Z,5.78
2022-12-01T13:44:04.702Z,5.78
2022-12-01T13:46:50.684Z,5.76
2022-12-01T13:49:34.775Z,5.79
2022-12-01T13:52:29.277Z,5.82
2022-12-01T13:55:26.686Z,5.83
2022-12-01T13:58:24.151Z,5.85
2022-12-01T14:00:52.141Z,5.83
2022-12-01T14:03:42.200Z,5.83
2022-12-01T14:06:22.623Z,5.80
2022-12-01T14:08:51.344Z,5.78
2022-12-01T14:11:22.457Z,5.76
2022-12-01T14:13:56.689Z,5.76
2022-12-01T14:16:25.133Z,5.74
2022-12-01T14:18:56.231Z,5.81
2022-12-01T14:21:43.245Z,5.80
2022-12-01T14:24:24.017Z,5.78
2022-12-01T14:26:53.582Z,5.83
2022-12-01T14:29:34.305Z,5.82
2022-12-01T14:32:25.884Z,5.81
2022-12-01T14:35:06.622Z,5.80
2022-12-01T14:37:43.398Z,5.74
2022-12-01T14:40:17.780Z,5.68
2022-12-01T14:43:06.723Z,5.69
2022-12-01T14:45:41.546Z,5.68
2022-12-01T14:48:14.942Z,5.65
2022-12-01T14:50:46.727Z,5.63
2022-12-01T14:53:23.473Z,5.65
2022-12-01T14:55:56.111Z,5.62
2022-12-01T14:58:29.247Z,5.61
2022-12-01T15:01:03.208Z,5.62
2022-12-01T15:03:36.361Z,5.58
2022-12-01T15:06:04.281Z,5.60
2022-12-01T15:08:42.031Z,5.62
2022-12-01T15:11:22.030Z,5.60
2022-12-01T15:13:51.450Z,5.60
2022-12-01T15:16:21.844Z,5.64
2022-12-01T15:18:50.158Z,5.63
2022-12-01T15:21:20.533Z,5.63
2022-12-01T15:23:56.361Z,5.66
2022-12-01T15:26:27.428Z,5.64
2022-12-01T15:29:16.289Z,5.66
2022-12-01T15:31:48.512Z,5.65
2022-12-01T15:34:19.899Z,5.64
2022-12-01T15:36:49.181Z,5.60
2022-12-01T15:39:19.169Z,5.58
2022-12-01T15:41:53.710Z,5.56
2022-12-01T15:44:26.833Z,5.57
2022-12-01T15:46:56.058Z,5.58
2022-12-01T15:49:29.324Z,5.59
2022-12-01T15:52:06.876Z,5.59
2022-12-01T15:54:35.162Z,5.54
2022-12-01T15:57:03.538Z,5.53
2022-12-01T15:59:36.783Z,5.54
2022-12-01T16:02:23.420Z,5.56
2022-12-01T16:05:01.191Z,5.54
2022-12-01T16:08:04.392Z,5.54
2022-12-01T16:10:39.286Z,5.55
2022-12-01T16:13:40.568Z,5.54
2022-12-01T16:16:39.923Z,5.55
2022-12-01T16:19:30.037Z,5.54
2022-12-01T16:22:02.495Z,5.55
2022-12-01T16:24:32.765Z,5.54
2022-12-01T16:27:04.619Z,5.54
2022-12-01T16:29:36.255Z,5.55
2022-12-01T16:32:20.751Z,5.59
2022-12-01T16:34:50.863Z,5.57
2022-12-01T16:37:18.475Z,5.49
2022-12-01T16:39:46.547Z,5.50
2022-12-01T16:42:15.934Z,5.50
2022-12-01T16:44:44.675Z,5.47
2022-12-01T16:47:17.133Z,5.48
2022-12-01T16:49:44.893Z,5.49
2022-12-01T16:55:01.922Z,5.57
2022-12-01T16:57:29.640Z,5.57
2022-12-01T16:59:57.246Z,5.55
2022-12-01T17:02:24.930Z,5.53
2022-12-01T17:04:52.813Z,5.48
2022-12-01T17:07:21.992Z,5.48
2022-12-01T17:09:49.683Z,5.55
2022-12-01T17:12:17.263Z,5.50
2022-12-01T17:14:44.911Z,5.47
2022-12-01T17:17:12.525Z,5.47
2022-12-01T17:19:40.121Z,5.48
2022-12-01T17:22:07.768Z,5.51
2022-12-01T17:24:36.750Z,5.52
2022-12-01T17:27:04.504Z,5.47
2022-12-01T17:29:32.180Z,5.45
2022-12-01T17:31:59.855Z,5.41
2022-12-01T17:34:27.569Z,5.40
2022-12-01T17:36:55.268Z,5.35
2022-12-01T17:39:22.958Z,5.39
2022-12-01T17:41:51.899Z,5.37
2022-12-01T17:44:19.520Z,5.38
2022-12-01T17:46:47.214Z,5.37
2022-12-01T17:49:15.044Z,5.38
2022-12-01T17:51:43.792Z,5.37
2022-12-01T17:54:11.522Z,5.37
2022-12-01T17:56:39.139Z,5.37
2022-12-01T17:59:08.146Z,5.38
2022-12-01T18:01:35.995Z,5.41
2022-12-01T18:04:03.772Z,5.37
2022-12-01T18:06:31.516Z,5.37
2022-12-01T18:09:00.477Z,5.36
2022-12-01T18:11:28.670Z,5.36
2022-12-01T18:13:56.417Z,5.35
2022-12-01T18:16:28.041Z,5.36
2022-12-01T18:18:57.748Z,5.33
2022-12-01T18:21:26.466Z,5.32
2022-12-01T18:23:55.627Z,5.30
2022-12-01T18:26:24.325Z,5.33
2022-12-01T18:28:54.786Z,5.31
2022-12-01T18:31:22.513Z,5.31
2022-12-01T18:33:51.668Z,5.32
2022-12-01T18:36:21.428Z,5.37
2022-12-01T18:38:49.981Z,5.36
2022-12-01T18:41:18.554Z,5.36
2022-12-01T18:43:46.534Z,5.36
2022-12-01T18:46:15.923Z,5.36
2022-12-01T18:48:45.961Z,5.32
2022-12-01T18:51:15.721Z,5.26
2022-12-01T18:53:45.310Z,5.26
2022-12-01T18:56:15.240Z,5.25
2022-12-01T18:58:43.898Z,5.23
2022-12-01T19:01:19.725Z,5.29
2022-12-01T19:03:48.009Z,5.27
2022-12-01T19:06:17.895Z,5.29
2022-12-01T19:08:47.399Z,5.22
2022-12-01T19:11:15.600Z,5.20
2022-12-01T19:13:43.259Z,5.20
2022-12-01T19:16:12.941Z,5.20
2022-12-01T19:18:41.372Z,5.26
2022-12-01T19:21:11.335Z,5.24
2022-12-01T19:23:40.321Z,5.26
2022-12-01T19:26:10.913Z,5.23
2022-12-01T19:28:40.215Z,5.27
2022-12-01T19:31:09.454Z,5.25
2022-12-01T19:33:37.122Z,5.23
2022-12-01T19:36:06.443Z,5.21
2022-12-01T19:38:34.122Z,5.19
2022-12-01T19:41:03.560Z,5.22
2022-12-01T19:43:31.242Z,5.23
2022-12-01T19:46:04.482Z,5.25
2022-12-01T19:48:32.147Z,5.24
2022-12-01T19:50:59.797Z,5.24
2022-12-01T19:53:31.970Z,5.21
2022-12-01T19:56:03.786Z,5.21
2022-12-01T19:58:34.337Z,5.19
2022-12-01T20:01:06.270Z,5.20
2022-12-01T20:03:33.970Z,5.21
2022-12-01T20:06:03.040Z,5.23
2022-12-01T20:08:35.060Z,5.20
2022-12-01T20:11:05.730Z,5.24
2022-12-01T20:13:34.279Z,5.22
2022-12-01T20:16:03.645Z,5.26
2022-12-01T20:18:31.371Z,5.24
2022-12-01T20:21:07.630Z,5.21
2022-12-01T20:23:36.702Z,5.20
2022-12-01T20:26:07.910Z,5.21
2022-12-01T20:28:37.209Z,5.23
2022-12-01T20:31:10.874Z,5.23
2022-12-01T20:33:38.886Z,5.23
2022-12-01T20:36:07.135Z,5.25
2022-12-01T20:38:35.461Z,5.28
2022-12-01T20:41:05.200Z,5.27
2022-12-01T20:43:33.465Z,5.29
2022-12-01T20:46:01.695Z,5.24
2022-12-01T20:48:29.712Z,5.26
2022-12-01T20:50:57.462Z,5.25
2022-12-01T20:53:25.083Z,5.25
2022-12-01T20:55:52.724Z,5.23
2022-12-01T20:58:21.753Z,5.24
2022-12-01T21:00:49.511Z,5.26
2022-12-01T21:03:17.118Z,5.27
2022-12-01T21:05:45.217Z,5.26
2022-12-01T21:08:14.357Z,5.25
2022-12-01T21:10:44.785Z,5.26
2022-12-01T21:13:37.021Z,5.27
2022-12-01T21:16:13.735Z,5.27
2022-12-01T21:18:48.673Z,5.26
2022-12-01T21:21:27.517Z,5.30
2022-12-01T21:24:09.596Z,5.33
2022-12-01T21:26:37.980Z,5.30
2022-12-01T21:29:17.742Z,5.30
2022-12-01T21:31:47.417Z,5.32
2022-12-01T21:34:20.030Z,5.33
2022-12-01T21:36:49.828Z,5.31
2022-12-01T21:39:20.490Z,5.34
2022-12-01T21:41:50.117Z,5.30
2022-12-01T21:44:19.978Z,5.25
2022-12-01T21:46:53.569Z,5.23
2022-12-01T21:49:23.298Z,5.22
2022-12-01T21:51:53.559Z,5.19
2022-12-01T21:54:22.563Z,5.19
2022-12-01T21:56:53.029Z,5.18
2022-12-01T21:59:22.499Z,5.15
2022-12-01T22:09:19.839Z,5.21
2022-12-01T22:11:52.741Z,5.19
2022-12-01T22:14:23.008Z,5.26
2022-12-01T22:16:56.289Z,5.28
2022-12-01T22:19:31.590Z,5.30
2022-12-01T22:22:04.397Z,5.35
2022-12-01T22:24:40.280Z,5.29
2022-12-01T22:27:21.653Z,5.30
2022-12-01T22:29:51.943Z,5.25
2022-12-01T22:32:35.749Z,5.22
2022-12-01T22:35:20.466Z,5.20
2022-12-01T22:37:49.926Z,5.13
2022-12-01T22:40:39.837Z,5.07
2022-12-01T22:43:27.205Z,5.08
2022-12-01T22:46:21.331Z,5.08
2022-12-01T22:48:51.771Z,5.11
2022-12-01T22:51:26.089Z,5.13
2022-12-01T22:53:59.058Z,5.12
2022-12-01T22:56:37.517Z,5.11
2022-12-01T22:59:16.989Z,5.13
2022-12-01T23:01:50.366Z,5.13
2022-12-01T23:04:27.426Z,5.13
2022-12-01T23:07:04.577Z,5.13
2022-12-01T23:09:35.831Z,5.16
2022-12-01T23:12:21.097Z,5.20
2022-12-01T23:14:52.363Z,5.21
2022-12-01T23:17:22.933Z,5.16
2022-12-01T23:19:54.085Z,5.14
2022-12-01T23:22:21.766Z,5.07
2022-12-01T23:24:49.564Z,5.13
2022-12-01T23:27:18.809Z,5.10
2022-12-01T23:29:46.625Z,5.09
2022-12-01T23:32:14.198Z,5.07
2022-12-01T23:34:41.840Z,5.03
2022-12-01T23:37:25.200Z,5.09
2022-12-01T23:39:52.835Z,5.05
2022-12-01T23:42:20.421Z,5.05
2022-12-01T23:44:49.505Z,5.03
2022-12-01T23:47:20.830Z,5.04
2022-12-01T23:49:49.472Z,5.05
2022-12-01T23:52:21.900Z,5.04
2022-12-01T23:54:50.056Z,5.06
2022-12-01T23:57:21.692Z,5.05
2022-12-01T23:59:50.277Z,5.02
